createdAt,value
2022-08-26T00:01:38.287Z,2.9
2022-08-26T00:04:40.252Z,2.9
2022-08-26T00:07:42.214Z,2.8
2022-08-26T00:10:44.222Z,3.1
2022-08-26T00:13:46.534Z,2.9
2022-08-26T00:16:48.895Z,3.1
2022-08-26T00:19:50.073Z,3.2
2022-08-26T00:22:52.056Z,3
2022-08-26T00:25:54.034Z,2.8
2022-08-26T00:28:56.018Z,3
2022-08-26T00:31:58.083Z,3.4
2022-08-26T00:34:59.940Z,3.2
2022-08-26T00:38:01.880Z,3.2
2022-08-26T00:41:03.861Z,3
2022-08-26T00:44:05.846Z,2.8
2022-08-26T00:47:07.791Z,3.1
2022-08-26T00:50:09.747Z,3.2
2022-08-26T00:53:11.726Z,3.3
2022-08-26T00:56:13.683Z,3.2
2022-08-26T00:59:15.654Z,3.2
2022-08-26T01:02:19.930Z,3.4
2022-08-26T01:05:19.603Z,3.5
2022-08-26T01:08:21.575Z,3.5
2022-08-26T01:11:23.520Z,3.1
2022-08-26T01:14:25.525Z,3.6
2022-08-26T01:17:27.477Z,3
2022-08-26T01:20:29.446Z,3.2
2022-08-26T01:23:31.410Z,3.3
2022-08-26T01:26:33.362Z,3.5
2022-08-26T01:29:35.334Z,2.9
2022-08-26T01:32:38.923Z,3.7
2022-08-26T01:35:39.259Z,3.5
2022-08-26T01:38:41.217Z,3.6
2022-08-26T01:41:44.096Z,3.4
2022-08-26T01:44:45.165Z,3.3
2022-08-26T01:47:47.143Z,3.4
2022-08-26T01:50:49.095Z,3.1
2022-08-26T01:53:51.060Z,3.9
2022-08-26T01:56:53.030Z,3.7
2022-08-26T01:59:55.003Z,3.5
2022-08-26T02:02:56.983Z,3.3
2022-08-26T02:05:58.917Z,3.4
2022-08-26T02:09:00.903Z,3.5
2022-08-26T02:12:02.860Z,3.3
2022-08-26T02:15:05.635Z,3.1
2022-08-26T02:18:06.789Z,3.3
2022-08-26T02:21:08.784Z,3.7
2022-08-26T02:24:10.732Z,3.7
2022-08-26T02:27:12.694Z,3.7
2022-08-26T02:30:14.666Z,3.6
2022-08-26T02:33:16.665Z,3.8
2022-08-26T02:36:18.639Z,3.8
2022-08-26T02:39:22.211Z,3.8
2022-08-26T02:42:22.551Z,4.3
2022-08-26T02:45:24.492Z,3.4
2022-08-26T02:48:26.477Z,3.9
2022-08-26T02:51:28.416Z,3.9
2022-08-26T02:54:30.387Z,3.9
2022-08-26T02:57:32.345Z,4.1
2022-08-26T03:00:34.349Z,3.9
2022-08-26T03:03:36.291Z,3.7
2022-08-26T03:06:38.226Z,3.7
2022-08-26T03:09:40.210Z,3.8
2022-08-26T03:12:42.156Z,4.1
2022-08-26T03:15:44.158Z,3.9
2022-08-26T03:18:47.068Z,3.7
2022-08-26T03:21:48.069Z,3.9
2022-08-26T03:24:50.036Z,3.9
2022-08-26T03:27:51.993Z,4.3
2022-08-26T03:30:54.037Z,4
2022-08-26T03:33:59.189Z,4.4
2022-08-26T03:36:57.904Z,4.3
2022-08-26T03:39:59.938Z,4
2022-08-26T03:43:01.896Z,4
2022-08-26T03:46:03.829Z,3.9
2022-08-26T03:49:05.752Z,4
2022-08-26T03:52:07.708Z,4
2022-08-26T03:55:09.691Z,4
2022-08-26T03:58:11.643Z,4.1
2022-08-26T04:01:13.592Z,4.2
2022-08-26T04:04:15.734Z,4.2
2022-08-26T04:07:17.517Z,4.5
2022-08-26T04:10:20.078Z,3.9
2022-08-26T04:13:21.442Z,4.1
2022-08-26T04:16:23.405Z,3.6
2022-08-26T04:19:25.366Z,4.1
2022-08-26T04:22:27.400Z,4.2
2022-08-26T04:25:29.291Z,4
2022-08-26T04:28:31.255Z,3.9
2022-08-26T04:31:33.314Z,3.8
2022-08-26T04:34:35.175Z,3.8
2022-08-26T04:37:37.190Z,3.9
2022-08-26T04:40:39.090Z,4.6
2022-08-26T04:43:41.057Z,4.2
2022-08-26T04:46:43.697Z,4
2022-08-26T04:49:44.976Z,4.4
2022-08-26T04:52:46.956Z,4.3
2022-08-26T04:55:48.909Z,4.2
2022-08-26T04:58:50.872Z,3.8
2022-08-26T05:01:52.938Z,4.2
2022-08-26T05:04:54.794Z,4.2
2022-08-26T05:07:56.756Z,4.4
2022-08-26T05:10:58.737Z,4.6
2022-08-26T05:14:02.200Z,4.4
2022-08-26T05:17:02.651Z,4.3
2022-08-26T05:20:04.638Z,4.2
2022-08-26T05:23:06.728Z,4
2022-08-26T05:26:08.547Z,4.4
2022-08-26T05:29:10.528Z,4.7
2022-08-26T05:32:12.496Z,4.3
2022-08-26T05:35:14.450Z,4.5
2022-08-26T05:38:16.429Z,4.4
2022-08-26T05:41:18.391Z,5
2022-08-26T05:44:20.343Z,4.7
2022-08-26T05:47:22.303Z,4.7
2022-08-26T05:50:24.265Z,4.6
2022-08-26T05:53:26.334Z,5
2022-08-26T05:56:28.204Z,4.9
2022-08-26T05:59:30.182Z,5.1
2022-08-26T06:02:32.159Z,5
2022-08-26T06:05:37.887Z,4.5
2022-08-26T06:08:36.058Z,4.5
2022-08-26T06:11:38.005Z,4.5
2022-08-26T06:14:39.968Z,4.6
2022-08-26T06:17:41.943Z,4.6
2022-08-26T06:20:43.902Z,4.1
2022-08-26T06:23:45.856Z,4.9
2022-08-26T06:26:50.341Z,4.6
2022-08-26T06:29:50.012Z,4.7
2022-08-26T06:32:51.738Z,4.8
2022-08-26T06:35:53.706Z,4.2
2022-08-26T06:38:55.673Z,4.6
2022-08-26T06:41:57.627Z,4.9
2022-08-26T06:44:59.591Z,4.5
2022-08-26T06:48:01.565Z,4.4
2022-08-26T06:51:03.534Z,5.3
2022-08-26T06:54:05.498Z,4.9
2022-08-26T06:57:07.455Z,4.8
2022-08-26T07:00:09.412Z,4.8
2022-08-26T07:03:11.582Z,4.9
2022-08-26T07:06:13.341Z,4.9
2022-08-26T07:09:15.295Z,5
2022-08-26T07:12:17.262Z,4.9
2022-08-26T07:15:19.221Z,5
2022-08-26T07:18:21.771Z,4.9
2022-08-26T07:21:23.137Z,5.1
2022-08-26T07:24:25.086Z,4.6
2022-08-26T07:27:27.035Z,5
2022-08-26T07:30:28.997Z,5.3
2022-08-26T07:33:31.086Z,4.6
2022-08-26T07:36:32.930Z,5.1
2022-08-26T07:39:34.860Z,4.7
2022-08-26T07:42:36.811Z,4.7
2022-08-26T07:45:38.785Z,4.7
2022-08-26T07:48:40.719Z,5.4
2022-08-26T07:51:42.671Z,5.3
2022-08-26T07:54:44.627Z,5.1
2022-08-26T07:57:46.588Z,5.7
2022-08-26T08:00:48.554Z,5.3
2022-08-26T08:03:50.630Z,4.8
2022-08-26T08:06:52.445Z,4.7
2022-08-26T08:09:54.383Z,4.9
2022-08-26T08:12:56.347Z,4.9
2022-08-26T08:15:58.263Z,4.9
2022-08-26T08:19:00.257Z,5.2
2022-08-26T08:22:02.175Z,5.2
2022-08-26T08:25:06.321Z,4.9
2022-08-26T08:28:06.100Z,5.1
2022-08-26T08:31:08.086Z,4.9
2022-08-26T08:34:09.982Z,5.2
2022-08-26T08:37:11.931Z,5.1
2022-08-26T08:40:13.955Z,5.3
2022-08-26T08:43:15.858Z,5.3
2022-08-26T08:46:17.821Z,4.9
2022-08-26T08:49:19.760Z,5
2022-08-26T08:52:21.703Z,5.2
2022-08-26T08:55:23.645Z,5.2
2022-08-26T08:58:25.596Z,5.5
2022-08-26T09:01:27.605Z,4.7
2022-08-26T09:04:29.506Z,4.7
2022-08-26T09:07:33.286Z,4.2
2022-08-26T09:10:33.412Z,4.3
2022-08-26T09:13:35.383Z,4.8
2022-08-26T09:16:37.410Z,4.7
2022-08-26T09:19:39.276Z,5.2
2022-08-26T09:22:41.305Z,4.6
2022-08-26T09:25:43.236Z,4.7
2022-08-26T09:28:45.179Z,4.4
2022-08-26T09:31:47.147Z,5.2
2022-08-26T09:34:49.104Z,5.4
2022-08-26T09:40:53.201Z,4.7
2022-08-26T09:43:54.944Z,5.3
2022-08-26T09:46:56.893Z,4.3
2022-08-26T09:49:58.917Z,4.8
2022-08-26T09:53:00.825Z,4.5
2022-08-26T09:56:02.754Z,4.5
2022-08-26T09:59:04.860Z,5.1
2022-08-26T10:02:06.668Z,5.1
2022-08-26T10:05:09.410Z,5.2
2022-08-26T10:08:10.568Z,4.4
2022-08-26T10:11:12.528Z,4.6
2022-08-26T10:14:14.492Z,4.5
2022-08-26T10:17:16.897Z,4.2
2022-08-26T10:20:23.006Z,5.5
2022-08-26T10:23:20.388Z,4.5
2022-08-26T10:26:22.353Z,4.2
2022-08-26T10:29:24.286Z,4.9
2022-08-26T10:32:26.313Z,5.3
2022-08-26T10:35:28.213Z,4.8
2022-08-26T10:38:30.174Z,4.8
